createdAt,value
2023-07-06T00:00:32.303Z,71.78
2023-07-06T00:03:57.818Z,71.78
2023-07-06T00:07:22.254Z,71.30
2023-07-06T00:10:50.754Z,70.26
2023-07-06T00:14:13.103Z,70.17
2023-07-06T00:17:37.488Z,70.26
2023-07-06T00:21:00.549Z,70.17
2023-07-06T00:24:22.195Z,70.49
2023-07-06T00:27:45.304Z,70.51
2023-07-06T00:31:12.097Z,70.67
2023-07-06T00:34:35.408Z,70.83
2023-07-06T00:37:59.924Z,70.71
2023-07-06T00:41:21.623Z,71.00
2023-07-06T00:44:53.572Z,71.12
2023-07-06T00:48:29.045Z,71.73
2023-07-06T00:51:50.719Z,71.58
2023-07-06T00:55:14.059Z,71.75
2023-07-06T00:58:43.440Z,71.57
2023-07-06T01:02:06.230Z,71.91
2023-07-06T01:05:29.789Z,71.81
2023-07-06T01:08:54.574Z,71.78
2023-07-06T01:12:18.637Z,71.91
2023-07-06T01:15:50.134Z,72.23
2023-07-06T01:19:46.941Z,72.25
2023-07-06T01:23:14.396Z,72.18
2023-07-06T01:27:04.381Z,72.21
2023-07-06T01:31:17.295Z,72.51
2023-07-06T01:34:54.602Z,72.76
2023-07-06T01:38:16.406Z,72.74
2023-07-06T01:41:38.002Z,72.79
2023-07-06T01:45:10.692Z,72.89
2023-07-06T01:48:38.307Z,73.19
2023-07-06T01:52:23.718Z,73.22
2023-07-06T01:55:54.473Z,73.51
2023-07-06T01:59:20.840Z,73.73
2023-07-06T02:02:49.167Z,73.49
2023-07-06T02:06:13.247Z,73.65
2023-07-06T02:09:48.825Z,73.75
2023-07-06T02:13:10.667Z,73.74
2023-07-06T02:16:32.342Z,73.99
2023-07-06T02:19:56.471Z,73.95
2023-07-06T02:23:18.142Z,73.90
2023-07-06T02:26:39.758Z,74.00
2023-07-06T02:30:04.092Z,74.00
2023-07-06T02:33:32.093Z,73.93
2023-07-06T02:36:56.982Z,72.92
2023-07-06T02:40:18.862Z,72.85
2023-07-06T02:43:42.768Z,72.64
2023-07-06T02:47:04.766Z,71.43
2023-07-06T02:50:27.527Z,71.41
2023-07-06T02:53:51.965Z,71.15
2023-07-06T02:57:13.915Z,70.93
2023-07-06T03:00:44.363Z,70.46
2023-07-06T03:04:12.347Z,71.05
2023-07-06T03:07:36.885Z,71.07
2023-07-06T03:10:58.578Z,70.59
2023-07-06T03:14:23.272Z,71.01
2023-07-06T03:17:50.333Z,70.75
2023-07-06T03:21:15.488Z,71.02
2023-07-06T03:24:39.305Z,71.40
2023-07-06T03:28:00.920Z,70.92
2023-07-06T03:31:23.059Z,70.81
2023-07-06T03:34:46.983Z,70.61
2023-07-06T03:38:10.897Z,71.53
2023-07-06T03:41:34.843Z,71.27
2023-07-06T03:44:56.884Z,70.60
2023-07-06T03:48:18.688Z,71.24
2023-07-06T03:51:47.199Z,71.28
2023-07-06T03:55:17.557Z,71.24
2023-07-06T03:58:39.669Z,70.82
2023-07-06T04:02:06.889Z,71.54
2023-07-06T04:05:39.008Z,70.69
2023-07-06T04:09:00.946Z,69.95
2023-07-06T04:12:24.732Z,70.14
2023-07-06T04:15:53.551Z,70.53
2023-07-06T04:19:18.858Z,71.01
2023-07-06T04:22:41.678Z,71.60
2023-07-06T04:26:03.858Z,71.98
2023-07-06T04:29:25.534Z,72.12
2023-07-06T04:32:54.256Z,72.82
2023-07-06T04:36:19.996Z,72.79
2023-07-06T04:39:43.504Z,71.74
2023-07-06T04:43:05.389Z,71.29
2023-07-06T04:46:27.033Z,70.86
2023-07-06T04:49:50.955Z,70.42
2023-07-06T04:53:12.522Z,70.04
2023-07-06T04:56:39.020Z,69.91
2023-07-06T05:00:13.238Z,69.39
2023-07-06T05:03:38.211Z,70.13
2023-07-06T05:07:00.050Z,68.96
2023-07-06T05:10:27.236Z,69.62
2023-07-06T05:13:49.487Z,69.42
2023-07-06T05:17:13.639Z,69.42
2023-07-06T05:20:35.629Z,69.67
2023-07-06T05:23:57.329Z,68.94
2023-07-06T05:27:21.506Z,69.38
2023-07-06T05:30:49.116Z,70.06
2023-07-06T05:34:13.097Z,71.33
2023-07-06T05:37:37.691Z,71.86
2023-07-06T05:41:03.447Z,72.71
2023-07-06T05:44:27.983Z,75.14
2023-07-06T05:47:49.585Z,74.58
2023-07-06T05:51:11.257Z,77.49
2023-07-06T05:54:33.844Z,77.45
2023-07-06T05:57:55.435Z,78.05
2023-07-06T06:01:22.048Z,77.54
2023-07-06T06:04:48.553Z,77.30
2023-07-06T06:08:12.886Z,76.77
2023-07-06T06:11:37.069Z,75.65
2023-07-06T06:15:03.544Z,74.84
2023-07-06T06:18:27.964Z,74.49
2023-07-06T06:21:51.941Z,74.96
2023-07-06T06:25:15.816Z,74.84
2023-07-06T06:28:37.713Z,74.92
2023-07-06T06:32:01.189Z,76.41
2023-07-06T06:35:37.889Z,77.17
2023-07-06T06:39:01.852Z,77.31
2023-07-06T06:42:26.177Z,75.49
2023-07-06T06:45:47.809Z,74.07
2023-07-06T06:49:09.543Z,74.68
2023-07-06T06:52:33.713Z,75.61
2023-07-06T06:55:58.626Z,74.99
2023-07-06T06:59:23.949Z,74.15
2023-07-06T07:02:45.675Z,74.97
2023-07-06T07:06:15.195Z,74.26
2023-07-06T07:09:36.866Z,74.91
2023-07-06T07:12:58.816Z,75.67
2023-07-06T07:16:23.191Z,74.73
2023-07-06T07:19:46.679Z,74.76
2023-07-06T07:23:11.573Z,74.75
2023-07-06T07:26:33.258Z,74.38
2023-07-06T07:29:55.322Z,75.42
2023-07-06T07:33:21.886Z,74.10
2023-07-06T07:36:46.183Z,73.90
2023-07-06T07:40:08.519Z,73.76
2023-07-06T07:43:33.430Z,71.19
2023-07-06T07:46:55.486Z,70.66
2023-07-06T07:50:18.766Z,69.09
2023-07-06T07:53:41.580Z,68.81
2023-07-06T07:57:08.923Z,68.08
2023-07-06T08:00:36.077Z,66.73
2023-07-06T08:04:00.274Z,67.32
2023-07-06T08:07:22.802Z,65.56
2023-07-06T08:10:44.401Z,67.49
2023-07-06T08:14:09.831Z,67.01
2023-07-06T08:17:31.535Z,67.71
2023-07-06T08:21:20.000Z,67.40
2023-07-06T08:24:37.791Z,67.68
2023-07-06T08:27:59.429Z,68.35
2023-07-06T08:31:26.008Z,68.89
2023-07-06T08:34:48.424Z,68.74
2023-07-06T08:38:13.288Z,68.49
2023-07-06T08:41:49.953Z,66.27
2023-07-06T08:45:20.773Z,65.10
2023-07-06T08:48:42.650Z,63.99
2023-07-06T08:52:07.608Z,62.89
2023-07-06T08:55:31.567Z,61.42
2023-07-06T08:58:55.754Z,59.53
2023-07-06T09:02:20.785Z,59.97
2023-07-06T09:05:47.804Z,60.11
2023-07-06T09:09:09.672Z,58.99
2023-07-06T09:12:37.717Z,57.47
2023-07-06T09:16:06.074Z,56.60
2023-07-06T09:19:27.739Z,57.16
2023-07-06T09:22:49.788Z,58.18
2023-07-06T09:26:32.652Z,59.38
2023-07-06T09:30:26.441Z,58.85
2023-07-06T09:33:50.387Z,58.93
2023-07-06T09:37:16.425Z,57.83
2023-07-06T09:40:38.176Z,59.34
2023-07-06T09:44:05.060Z,60.08
2023-07-06T09:47:28.847Z,60.53
2023-07-06T09:50:53.538Z,60.10
2023-07-06T09:54:19.120Z,59.25
2023-07-06T09:57:43.414Z,60.66
2023-07-06T10:01:15.884Z,60.26
2023-07-06T10:04:45.697Z,57.73
2023-07-06T10:08:13.285Z,57.93
2023-07-06T10:11:53.219Z,58.50
2023-07-06T10:15:30.042Z,58.40
2023-07-06T10:19:23.733Z,58.68
2023-07-06T10:23:11.057Z,55.69
2023-07-06T10:26:36.035Z,54.74
2023-07-06T10:30:05.398Z,52.95
2023-07-06T10:33:39.330Z,52.24
2023-07-06T10:37:04.303Z,50.53
2023-07-06T10:40:32.151Z,51.47
2023-07-06T10:44:02.649Z,52.57
2023-07-06T10:47:32.441Z,50.89
2023-07-06T10:51:10.814Z,53.11
2023-07-06T10:54:36.593Z,53.51
2023-07-06T10:58:12.678Z,53.27
2023-07-06T11:01:40.726Z,54.73
2023-07-06T11:05:10.675Z,53.96
2023-07-06T11:09:03.092Z,54.36
2023-07-06T11:12:26.186Z,55.92
2023-07-06T11:15:52.351Z,57.32
2023-07-06T11:19:22.223Z,56.94
2023-07-06T11:22:47.386Z,56.25
2023-07-06T11:26:39.134Z,56.36
2023-07-06T11:30:14.707Z,54.05
2023-07-06T11:33:52.638Z,54.08
2023-07-06T11:37:53.579Z,53.52
2023-07-06T11:41:47.197Z,53.40
2023-07-06T11:45:33.653Z,50.76
2023-07-06T11:49:24.388Z,51.43
2023-07-06T11:53:10.755Z,50.56
2023-07-06T11:56:34.489Z,50.48
2023-07-06T12:00:16.086Z,51.00
2023-07-06T12:03:38.111Z,51.00
2023-07-06T12:07:09.468Z,51.35
2023-07-06T12:10:38.365Z,49.75
2023-07-06T12:14:02.357Z,50.95
2023-07-06T12:17:28.848Z,50.34
2023-07-06T12:20:57.542Z,47.76
2023-07-06T12:24:23.173Z,48.11
2023-07-06T12:27:48.089Z,47.65
2023-07-06T12:31:13.209Z,47.09
2023-07-06T12:34:39.037Z,46.55
2023-07-06T12:38:04.671Z,44.67
2023-07-06T12:41:35.742Z,43.24
2023-07-06T12:44:58.873Z,45.52
2023-07-06T12:48:24.883Z,46.21
2023-07-06T12:51:48.739Z,44.68
2023-07-06T12:55:15.710Z,46.15
2023-07-06T12:58:39.217Z,47.60
2023-07-06T13:02:16.607Z,46.96
2023-07-06T13:05:43.558Z,47.82
2023-07-06T13:09:07.449Z,47.90
2023-07-06T13:12:34.686Z,47.73
2023-07-06T13:16:02.701Z,48.70
2023-07-06T13:19:25.222Z,47.46
2023-07-06T13:22:47.061Z,46.84
2023-07-06T13:26:11.312Z,46.99
2023-07-06T13:29:35.642Z,46.55
2023-07-06T13:32:58.431Z,44.92
2023-07-06T13:36:21.148Z,46.59
2023-07-06T13:39:44.878Z,45.41
2023-07-06T13:43:14.544Z,45.22
2023-07-06T13:46:39.474Z,44.93
2023-07-06T13:50:02.488Z,41.93
2023-07-06T13:53:27.683Z,41.42
2023-07-06T13:56:49.378Z,40.97
2023-07-06T14:00:11.728Z,43.08
2023-07-06T14:03:33.999Z,42.61
2023-07-06T14:06:56.622Z,43.28
2023-07-06T14:10:19.230Z,43.76
2023-07-06T14:13:43.898Z,43.42
2023-07-06T14:17:07.973Z,43.26
2023-07-06T14:20:34.708Z,43.21
2023-07-06T14:23:56.415Z,41.76
2023-07-06T14:27:20.636Z,42.93
2023-07-06T14:30:44.456Z,43.09
2023-07-06T14:34:06.096Z,43.29
2023-07-06T14:37:32.697Z,43.72
2023-07-06T14:41:01.869Z,42.52
2023-07-06T14:44:23.478Z,48.14
2023-07-06T14:47:45.207Z,51.82
2023-07-06T14:51:11.018Z,53.34
2023-07-06T14:54:38.625Z,53.91
2023-07-06T14:58:05.192Z,53.28
2023-07-06T15:01:29.260Z,54.25
2023-07-06T15:04:53.610Z,53.77
2023-07-06T15:08:17.539Z,53.84
2023-07-06T15:11:39.141Z,55.22
2023-07-06T15:15:00.774Z,55.73
2023-07-06T15:18:22.534Z,55.79
2023-07-06T15:21:46.466Z,55.39
2023-07-06T15:25:11.422Z,55.73
2023-07-06T15:28:33.137Z,56.06
2023-07-06T15:31:57.671Z,55.50
2023-07-06T15:35:22.411Z,55.34
2023-07-06T15:38:46.744Z,54.84
2023-07-06T15:42:08.555Z,55.86
2023-07-06T15:45:30.322Z,56.77
2023-07-06T15:48:52.626Z,56.92
2023-07-06T15:52:14.592Z,57.05
2023-07-06T15:55:39.640Z,56.95
2023-07-06T15:59:04.850Z,56.03
2023-07-06T16:02:31.298Z,56.22
2023-07-06T16:05:53.207Z,56.29
2023-07-06T16:09:14.857Z,56.26
2023-07-06T16:12:38.714Z,56.44
2023-07-06T16:16:02.403Z,56.75
2023-07-06T16:19:26.896Z,56.00
2023-07-06T16:22:48.499Z,55.82
2023-07-06T16:26:15.066Z,55.77
2023-07-06T16:29:39.388Z,55.97
2023-07-06T16:33:01.191Z,56.33
2023-07-06T16:36:25.926Z,56.41
2023-07-06T16:39:51.072Z,57.20
2023-07-06T16:43:12.773Z,56.57
2023-07-06T16:46:34.499Z,56.61
2023-07-06T16:49:57.023Z,56.37
2023-07-06T16:53:21.434Z,56.23
2023-07-06T16:56:45.141Z,56.97
2023-07-06T17:00:12.545Z,56.98
2023-07-06T17:03:34.769Z,57.40
2023-07-06T17:06:56.581Z,57.30
2023-07-06T17:10:27.668Z,57.78
2023-07-06T17:13:51.867Z,57.82
2023-07-06T17:17:13.694Z,57.48
2023-07-06T17:20:39.767Z,57.53
2023-07-06T17:24:04.745Z,57.83
2023-07-06T17:27:26.422Z,57.88
2023-07-06T17:30:48.337Z,57.91
2023-07-06T17:34:15.317Z,58.70
2023-07-06T17:37:36.888Z,58.98
2023-07-06T17:41:03.492Z,59.52
2023-07-06T17:44:25.148Z,59.08
2023-07-06T17:47:49.086Z,59.39
2023-07-06T17:51:13.581Z,59.02
2023-07-06T17:54:37.946Z,59.62
2023-07-06T17:58:01.896Z,60.13
2023-07-06T18:01:23.594Z,59.26
2023-07-06T18:04:47.917Z,59.65
2023-07-06T18:08:09.583Z,59.88
2023-07-06T18:11:31.288Z,60.26
2023-07-06T18:14:52.910Z,60.44
2023-07-06T18:18:14.823Z,60.87
2023-07-06T18:21:38.744Z,60.76
2023-07-06T18:25:00.441Z,60.79
2023-07-06T18:28:24.293Z,61.05
2023-07-06T18:31:45.944Z,62.07
2023-07-06T18:35:08.460Z,63.57
2023-07-06T18:38:30.356Z,63.78
2023-07-06T18:41:51.966Z,64.70
2023-07-06T18:45:22.603Z,65.20
2023-07-06T18:48:51.108Z,65.58
2023-07-06T18:52:12.713Z,65.36
2023-07-06T18:55:34.973Z,65.45
2023-07-06T18:58:56.619Z,66.02
2023-07-06T19:02:18.539Z,66.30
2023-07-06T19:05:40.257Z,65.89
2023-07-06T19:09:04.204Z,66.03
2023-07-06T19:12:25.770Z,66.15
2023-07-06T19:15:55.275Z,66.50
2023-07-06T19:19:18.716Z,66.87
2023-07-06T19:22:52.242Z,66.87
2023-07-06T19:26:19.175Z,67.67
2023-07-06T19:29:44.407Z,68.16
2023-07-06T19:33:08.506Z,67.86
2023-07-06T19:36:30.239Z,68.14
2023-07-06T19:39:51.862Z,68.34
2023-07-06T19:43:15.893Z,68.40
2023-07-06T19:46:42.357Z,68.53
2023-07-06T19:50:04.313Z,68.98
2023-07-06T19:53:27.075Z,69.36
2023-07-06T19:56:51.694Z,69.11
2023-07-06T20:00:14.914Z,69.06
2023-07-06T20:03:38.946Z,68.76
2023-07-06T20:07:00.535Z,68.75
2023-07-06T20:10:25.397Z,68.99
2023-07-06T20:13:50.036Z,69.29
2023-07-06T20:17:15.255Z,69.26
2023-07-06T20:20:37.049Z,69.28
2023-07-06T20:23:58.769Z,68.97
2023-07-06T20:27:20.816Z,69.37
2023-07-06T20:30:47.005Z,69.40
2023-07-06T20:34:08.729Z,69.22
2023-07-06T20:37:37.356Z,69.10
2023-07-06T20:40:59.202Z,69.57
2023-07-06T20:44:23.355Z,69.08
2023-07-06T20:47:45.035Z,68.40
2023-07-06T20:51:06.724Z,66.97
2023-07-06T20:54:31.075Z,67.34
2023-07-06T20:57:53.190Z,67.57
2023-07-06T21:01:14.854Z,67.48
2023-07-06T21:04:38.675Z,67.50
2023-07-06T21:08:02.743Z,67.24
2023-07-06T21:11:27.024Z,67.44
2023-07-06T21:14:48.833Z,67.76
2023-07-06T21:18:10.530Z,67.80
2023-07-06T21:21:33.086Z,67.70
2023-07-06T21:24:57.142Z,68.02
2023-07-06T21:28:18.960Z,68.17
2023-07-06T21:31:45.258Z,68.36
2023-07-06T21:35:07.042Z,68.26
2023-07-06T21:38:28.816Z,68.53
2023-07-06T21:41:51.648Z,68.78
2023-07-06T21:45:18.017Z,68.45
2023-07-06T21:48:41.166Z,68.81
2023-07-06T21:52:03.056Z,69.30
2023-07-06T21:55:24.636Z,69.64
2023-07-06T21:58:46.736Z,69.58
2023-07-06T22:02:08.409Z,69.78
2023-07-06T22:05:30.156Z,69.75
2023-07-06T22:08:51.983Z,69.94
2023-07-06T22:12:13.645Z,70.05
2023-07-06T22:15:37.640Z,70.17
2023-07-06T22:19:01.732Z,70.20
2023-07-06T22:22:26.100Z,70.20
2023-07-06T22:25:52.956Z,70.53
2023-07-06T22:29:14.560Z,70.68
2023-07-06T22:32:36.204Z,70.79
2023-07-06T22:36:02.537Z,71.00
2023-07-06T22:39:24.424Z,71.28
2023-07-06T22:42:46.024Z,71.17
2023-07-06T22:46:08.014Z,71.42
2023-07-06T22:49:32.150Z,71.45
2023-07-06T22:53:01.855Z,71.56
2023-07-06T22:56:28.290Z,71.71
2023-07-06T22:59:50.303Z,72.05
2023-07-06T23:03:11.993Z,72.70
2023-07-06T23:06:41.280Z,72.77
2023-07-06T23:10:05.957Z,72.59
2023-07-06T23:13:30.970Z,72.71
2023-07-06T23:16:57.916Z,73.07
2023-07-06T23:20:20.617Z,73.09
2023-07-06T23:23:44.957Z,73.07
2023-07-06T23:27:06.990Z,72.94
2023-07-06T23:30:29.383Z,72.71
2023-07-06T23:33:54.078Z,72.50
2023-07-06T23:37:15.653Z,72.49
2023-07-06T23:40:38.112Z,72.51
2023-07-06T23:44:02.243Z,72.56
2023-07-06T23:47:23.930Z,72.73
2023-07-06T23:50:51.234Z,72.84
2023-07-06T23:54:15.234Z,72.85
2023-07-06T23:57:36.988Z,72.62
